createdAt,value
2022-11-08T00:00:20.265Z,75.56
2022-11-08T00:02:47.978Z,75.94
2022-11-08T00:05:33.419Z,76.03
2022-11-08T00:08:18.803Z,76.21
2022-11-08T00:11:04.400Z,76.20
2022-11-08T00:13:49.322Z,76.26
2022-11-08T00:16:17.460Z,75.68
2022-11-08T00:18:45.301Z,75.91
2022-11-08T00:21:12.909Z,76.15
2022-11-08T00:23:40.565Z,75.78
2022-11-08T00:26:08.138Z,75.91
2022-11-08T00:28:37.797Z,76.17
2022-11-08T00:31:06.021Z,76.05
2022-11-08T00:33:33.587Z,76.11
2022-11-08T00:36:01.192Z,75.78
2022-11-08T00:38:28.769Z,75.88
2022-11-08T00:40:57.481Z,75.93
2022-11-08T00:43:25.040Z,75.95
2022-11-08T00:45:52.700Z,76.16
2022-11-08T00:48:20.600Z,75.67
2022-11-08T00:50:48.346Z,76.25
2022-11-08T00:53:16.687Z,76.12
2022-11-08T00:55:44.656Z,75.76
2022-11-08T00:58:12.554Z,75.88
2022-11-08T01:00:40.162Z,75.65
2022-11-08T01:03:24.612Z,76.28
2022-11-08T01:05:52.592Z,76.14
2022-11-08T01:08:20.608Z,75.86
2022-11-08T01:10:48.515Z,75.72
2022-11-08T01:13:16.181Z,75.99
2022-11-08T01:15:43.854Z,75.82
2022-11-08T01:18:11.888Z,75.69
2022-11-08T01:20:39.630Z,76.42
2022-11-08T01:23:07.243Z,75.95
2022-11-08T01:25:34.783Z,75.54
2022-11-08T01:28:03.009Z,75.33
2022-11-08T01:30:30.975Z,75.78
2022-11-08T01:32:58.525Z,75.50
2022-11-08T01:35:26.153Z,75.16
2022-11-08T01:37:53.749Z,75.79
2022-11-08T01:40:21.758Z,75.35
2022-11-08T01:42:49.678Z,74.75
2022-11-08T01:45:17.243Z,75.01
2022-11-08T01:47:44.774Z,75.30
2022-11-08T01:50:12.684Z,74.88
2022-11-08T01:52:40.224Z,75.26
2022-11-08T01:55:08.183Z,74.93
2022-11-08T01:57:35.921Z,74.90
2022-11-08T02:00:03.802Z,75.02
2022-11-08T02:02:31.885Z,74.47
2022-11-08T02:04:59.514Z,74.82
2022-11-08T02:07:27.534Z,74.47
2022-11-08T02:09:55.077Z,74.66
2022-11-08T02:12:22.655Z,74.65
2022-11-08T02:14:50.197Z,74.86
2022-11-08T02:17:17.748Z,74.36
2022-11-08T02:19:45.517Z,74.51
2022-11-08T02:22:13.052Z,74.81
2022-11-08T02:24:40.987Z,74.38
2022-11-08T02:27:08.564Z,74.22
2022-11-08T02:29:38.307Z,73.87
2022-11-08T02:32:06.331Z,73.76
2022-11-08T02:34:33.923Z,74.25
2022-11-08T02:37:01.456Z,74.18
2022-11-08T02:39:29.063Z,73.61
2022-11-08T02:41:57.932Z,74.42
2022-11-08T02:44:25.867Z,73.93
2022-11-08T02:46:53.845Z,73.65
2022-11-08T02:49:21.448Z,73.25
2022-11-08T02:51:48.962Z,73.59
2022-11-08T02:54:18.703Z,73.71
2022-11-08T02:56:46.629Z,73.74
2022-11-08T02:59:14.179Z,73.43
2022-11-08T03:01:41.803Z,73.49
2022-11-08T03:04:09.545Z,73.33
2022-11-08T03:06:38.365Z,72.91
2022-11-08T03:09:06.289Z,73.39
2022-11-08T03:11:33.855Z,73.50
2022-11-08T03:14:01.477Z,73.17
2022-11-08T03:16:29.012Z,73.13
2022-11-08T03:18:56.591Z,73.63
2022-11-08T03:21:24.528Z,73.67
2022-11-08T03:23:52.091Z,73.86
2022-11-08T03:26:19.677Z,73.80
2022-11-08T03:28:47.557Z,74.32
2022-11-08T03:31:17.096Z,73.80
2022-11-08T03:33:45.044Z,73.73
2022-11-08T03:36:12.581Z,73.70
2022-11-08T03:38:40.147Z,74.15
2022-11-08T03:41:07.715Z,74.34
2022-11-08T03:43:36.358Z,74.24
2022-11-08T03:46:04.270Z,74.58
2022-11-08T03:48:31.800Z,74.42
2022-11-08T03:50:59.848Z,74.03
2022-11-08T03:53:27.348Z,73.99
2022-11-08T03:55:57.570Z,74.83
2022-11-08T03:58:25.469Z,74.70
2022-11-08T04:00:53.004Z,74.69
2022-11-08T04:03:20.598Z,74.68
2022-11-08T04:05:48.142Z,75.03
2022-11-08T04:08:17.571Z,75.20
2022-11-08T04:10:45.664Z,74.93
2022-11-08T04:13:31.030Z,74.77
2022-11-08T04:15:58.634Z,74.74
2022-11-08T04:18:43.835Z,75.22
2022-11-08T04:21:22.033Z,75.29
2022-11-08T04:23:49.737Z,74.80
2022-11-08T04:26:17.281Z,75.58
2022-11-08T04:28:44.879Z,75.46
2022-11-08T04:31:12.469Z,75.28
2022-11-08T04:33:43.238Z,75.49
2022-11-08T04:36:10.782Z,75.69
2022-11-08T04:38:38.289Z,75.88
2022-11-08T04:41:05.804Z,76.09
2022-11-08T04:43:33.383Z,75.76
2022-11-08T04:46:01.342Z,75.96
2022-11-08T04:48:28.896Z,75.58
2022-11-08T04:50:56.460Z,76.22
2022-11-08T04:53:24.004Z,76.26
2022-11-08T04:55:51.824Z,75.90
2022-11-08T04:58:20.068Z,76.70
2022-11-08T05:00:47.814Z,76.20
2022-11-08T05:03:15.337Z,76.99
2022-11-08T05:05:42.910Z,76.43
2022-11-08T05:08:10.457Z,76.75
2022-11-08T05:10:38.330Z,76.57
2022-11-08T05:13:05.977Z,76.91
2022-11-08T05:15:33.507Z,76.93
2022-11-08T05:18:01.423Z,77.17
2022-11-08T05:20:46.618Z,77.31
2022-11-08T05:23:28.293Z,77.48
2022-11-08T05:25:55.879Z,77.71
2022-11-08T05:28:23.373Z,77.95
2022-11-08T05:30:51.305Z,77.96
2022-11-08T05:33:18.905Z,77.54
2022-11-08T05:35:46.456Z,77.55
2022-11-08T05:38:14.040Z,77.79
2022-11-08T05:40:41.707Z,78.04
2022-11-08T05:43:09.600Z,78.02
2022-11-08T05:45:37.139Z,78.15
2022-11-08T05:48:05.171Z,77.72
2022-11-08T05:50:33.079Z,77.85
2022-11-08T05:53:00.599Z,77.97
2022-11-08T05:55:28.507Z,77.56
2022-11-08T05:57:56.094Z,78.04
2022-11-08T06:00:24.061Z,78.06
2022-11-08T06:02:51.732Z,77.67
2022-11-08T06:05:19.354Z,77.76
2022-11-08T06:07:47.346Z,77.59
2022-11-08T06:10:14.971Z,78.00
2022-11-08T06:12:44.277Z,77.37
2022-11-08T06:15:11.927Z,77.71
2022-11-08T06:17:39.583Z,77.57
2022-11-08T06:20:07.824Z,77.83
2022-11-08T06:22:35.669Z,77.40
2022-11-08T06:25:05.245Z,77.08
2022-11-08T06:27:32.916Z,76.88
2022-11-08T06:30:00.519Z,76.46
2022-11-08T06:32:28.204Z,76.33
2022-11-08T06:34:55.821Z,75.49
2022-11-08T06:37:24.362Z,75.85
2022-11-08T06:39:51.988Z,74.89
2022-11-08T06:42:19.544Z,75.27
2022-11-08T06:44:47.804Z,74.71
2022-11-08T06:47:15.565Z,74.17
2022-11-08T06:49:43.220Z,74.03
2022-11-08T06:52:10.858Z,73.90
2022-11-08T06:54:38.599Z,74.33
2022-11-08T06:57:06.528Z,73.92
2022-11-08T06:59:34.105Z,73.54
2022-11-08T07:02:02.801Z,73.46
2022-11-08T07:04:30.481Z,73.62
2022-11-08T07:06:58.344Z,72.80
2022-11-08T07:09:26.471Z,72.31
2022-11-08T07:11:54.088Z,72.08
2022-11-08T07:14:23.037Z,71.73
2022-11-08T07:16:50.746Z,71.11
2022-11-08T07:19:18.367Z,70.99
2022-11-08T07:21:46.492Z,70.80
2022-11-08T07:24:14.237Z,71.10
2022-11-08T07:26:42.737Z,71.15
2022-11-08T07:29:15.686Z,70.58
2022-11-08T07:31:43.753Z,70.47
2022-11-08T07:34:11.741Z,70.50
2022-11-08T07:36:39.478Z,69.75
2022-11-08T07:39:07.239Z,69.39
2022-11-08T07:41:34.934Z,69.49
2022-11-08T07:44:02.544Z,69.28
2022-11-08T07:46:30.708Z,68.90
2022-11-08T07:48:58.292Z,68.82
2022-11-08T07:51:28.904Z,68.55
2022-11-08T07:54:01.763Z,68.01
2022-11-08T07:56:30.489Z,68.10
2022-11-08T07:58:58.100Z,67.48
2022-11-08T08:01:25.657Z,67.20
2022-11-08T08:03:54.493Z,66.44
2022-11-08T08:06:22.200Z,66.00
2022-11-08T08:08:49.742Z,65.53
2022-11-08T08:11:17.693Z,65.09
2022-11-08T08:13:46.748Z,64.39
2022-11-08T08:16:14.326Z,64.28
2022-11-08T08:18:42.033Z,63.48
2022-11-08T08:21:09.856Z,62.99
2022-11-08T08:23:37.568Z,63.18
2022-11-08T08:26:05.317Z,62.19
2022-11-08T08:28:33.041Z,62.01
2022-11-08T08:31:00.681Z,61.14
2022-11-08T08:33:29.655Z,61.03
2022-11-08T08:35:58.323Z,60.51
2022-11-08T08:38:26.028Z,60.35
2022-11-08T08:40:55.623Z,59.62
2022-11-08T08:43:23.464Z,60.32
2022-11-08T08:45:51.172Z,59.53
2022-11-08T08:48:19.616Z,59.66
2022-11-08T08:50:47.333Z,59.55
2022-11-08T08:53:16.511Z,59.57
2022-11-08T08:55:44.497Z,59.39
2022-11-08T08:58:12.548Z,59.05
2022-11-08T09:03:29.892Z,59.05
2022-11-08T09:05:57.571Z,58.36
2022-11-08T09:08:25.536Z,58.06
2022-11-08T09:10:53.937Z,57.62
2022-11-08T09:13:21.664Z,57.80
2022-11-08T09:15:49.429Z,57.00
2022-11-08T09:18:17.975Z,57.38
2022-11-08T09:20:45.763Z,57.09
2022-11-08T09:23:14.280Z,56.61
2022-11-08T09:25:42.258Z,56.18
2022-11-08T09:28:12.091Z,56.25
2022-11-08T09:30:39.681Z,56.87
2022-11-08T09:33:07.499Z,56.70
2022-11-08T09:35:35.546Z,56.26
2022-11-08T09:38:03.311Z,56.24
2022-11-08T09:40:32.097Z,55.87
2022-11-08T09:42:59.952Z,55.79
2022-11-08T09:45:27.787Z,55.50
2022-11-08T09:47:56.155Z,54.96
2022-11-08T09:50:23.857Z,54.67
2022-11-08T09:52:52.353Z,54.90
2022-11-08T09:55:20.208Z,54.77
2022-11-08T09:57:47.955Z,53.95
2022-11-08T10:00:15.827Z,53.50
2022-11-08T10:02:43.849Z,53.47
2022-11-08T10:05:16.034Z,53.49
2022-11-08T10:07:43.819Z,53.62
2022-11-08T10:10:11.767Z,53.27
2022-11-08T10:12:41.013Z,52.82
2022-11-08T10:15:08.735Z,53.00
2022-11-08T10:17:37.832Z,52.99
2022-11-08T10:20:07.174Z,52.50
2022-11-08T10:22:35.145Z,52.23
2022-11-08T10:25:03.894Z,52.59
2022-11-08T10:27:31.549Z,52.45
2022-11-08T10:29:59.331Z,52.59
2022-11-08T10:32:27.393Z,53.00
2022-11-08T10:34:55.165Z,53.28
2022-11-08T10:37:23.258Z,53.18
2022-11-08T10:39:51.239Z,53.36
2022-11-08T10:42:20.388Z,52.93
2022-11-08T10:44:48.282Z,53.00
2022-11-08T10:47:16.323Z,52.90
2022-11-08T10:49:44.399Z,53.43
2022-11-08T10:52:12.099Z,53.69
2022-11-08T10:54:40.008Z,53.23
2022-11-08T10:57:07.809Z,53.86
2022-11-08T10:59:35.673Z,53.60
2022-11-08T11:02:03.799Z,53.39
2022-11-08T11:04:31.677Z,53.78
2022-11-08T11:06:59.630Z,53.37
2022-11-08T11:09:27.681Z,53.91
2022-11-08T11:11:55.532Z,54.11
2022-11-08T11:14:23.679Z,54.16
2022-11-08T11:16:51.556Z,53.51
2022-11-08T11:19:19.315Z,53.74
2022-11-08T11:21:47.086Z,54.13
2022-11-08T11:24:17.847Z,53.87
2022-11-08T11:26:47.787Z,54.13
2022-11-08T11:29:16.025Z,53.64
2022-11-08T11:31:43.980Z,53.69
2022-11-08T11:34:11.938Z,53.78
2022-11-08T11:36:40.189Z,53.99
2022-11-08T11:39:08.291Z,54.04
2022-11-08T11:41:36.222Z,53.99
2022-11-08T11:44:04.395Z,54.36
2022-11-08T11:46:33.019Z,54.46
2022-11-08T11:49:02.900Z,53.42
2022-11-08T11:51:31.608Z,54.07
2022-11-08T11:53:59.561Z,53.74
2022-11-08T11:56:29.200Z,54.35
2022-11-08T11:58:57.234Z,54.10
2022-11-08T12:01:25.051Z,54.21
2022-11-08T12:03:52.879Z,54.24
2022-11-08T12:06:21.758Z,53.94
2022-11-08T12:08:50.821Z,54.07
2022-11-08T12:11:18.558Z,53.93
2022-11-08T12:13:50.238Z,53.94
2022-11-08T12:16:22.316Z,53.81
2022-11-08T12:18:50.574Z,53.91
2022-11-08T12:21:18.712Z,53.56
2022-11-08T12:23:48.049Z,53.64
2022-11-08T12:26:15.894Z,53.51
2022-11-08T12:28:44.053Z,53.68
2022-11-08T12:31:15.561Z,53.67
2022-11-08T12:33:43.400Z,53.44
2022-11-08T12:36:11.850Z,53.72
2022-11-08T12:38:39.900Z,53.55
2022-11-08T12:41:07.619Z,53.23
2022-11-08T12:43:36.535Z,53.12
2022-11-08T12:46:04.481Z,52.91
2022-11-08T12:48:32.314Z,53.06
2022-11-08T12:51:01.806Z,52.57
2022-11-08T12:53:30.518Z,52.88
2022-11-08T12:56:01.900Z,52.69
2022-11-08T12:58:33.934Z,52.61
2022-11-08T13:01:02.489Z,52.91
2022-11-08T13:03:30.907Z,53.10
2022-11-08T13:06:01.054Z,52.41
2022-11-08T13:08:29.057Z,52.27
2022-11-08T13:10:56.881Z,52.11
2022-11-08T13:13:24.815Z,51.78
2022-11-08T13:15:53.068Z,51.85
2022-11-08T13:18:22.099Z,51.35
2022-11-08T13:20:49.970Z,51.57
2022-11-08T13:23:18.205Z,51.89
2022-11-08T13:25:45.968Z,52.13
2022-11-08T13:28:14.291Z,51.79
2022-11-08T13:30:42.329Z,52.07
2022-11-08T13:33:10.283Z,52.94
2022-11-08T13:35:38.213Z,52.83
2022-11-08T13:38:06.161Z,53.13
2022-11-08T13:40:34.483Z,53.02
2022-11-08T13:43:02.833Z,53.01
2022-11-08T13:45:30.686Z,53.14
2022-11-08T13:47:58.797Z,52.96
2022-11-08T13:50:26.774Z,53.28
2022-11-08T13:52:55.361Z,53.61
2022-11-08T13:55:23.121Z,54.04
2022-11-08T13:57:51.237Z,53.55
2022-11-08T14:00:19.222Z,53.38
2022-11-08T14:02:47.231Z,53.53
2022-11-08T14:05:15.379Z,53.48
2022-11-08T14:07:43.485Z,53.48
2022-11-08T14:10:11.369Z,54.16
2022-11-08T14:12:39.302Z,54.58
2022-11-08T14:15:07.816Z,54.53
2022-11-08T14:17:36.291Z,54.42
2022-11-08T14:20:07.469Z,54.64
2022-11-08T14:22:35.267Z,54.60
2022-11-08T14:25:03.040Z,54.90
2022-11-08T14:27:30.989Z,55.43
2022-11-08T14:29:59.240Z,55.11
2022-11-08T14:32:27.067Z,55.10
2022-11-08T14:34:55.135Z,55.47
2022-11-08T14:37:23.001Z,56.13
2022-11-08T14:39:50.886Z,55.67
2022-11-08T14:42:19.594Z,56.30
2022-11-08T14:44:48.574Z,56.01
2022-11-08T14:47:16.502Z,56.70
2022-11-08T14:49:44.564Z,56.23
2022-11-08T14:52:12.428Z,56.90
2022-11-08T14:54:41.284Z,57.12
2022-11-08T14:57:09.751Z,57.36
2022-11-08T14:59:37.617Z,57.14
2022-11-08T15:02:05.716Z,56.89
2022-11-08T15:04:33.622Z,57.42
2022-11-08T15:07:01.938Z,57.56
2022-11-08T15:09:31.274Z,57.35
2022-11-08T15:11:59.165Z,57.92
2022-11-08T15:14:26.952Z,57.69
2022-11-08T15:16:59.878Z,57.64
2022-11-08T15:19:31.542Z,57.41
2022-11-08T15:21:59.445Z,57.92
2022-11-08T15:24:27.347Z,58.05
2022-11-08T15:26:55.388Z,58.20
2022-11-08T15:29:25.908Z,57.76
2022-11-08T15:32:00.060Z,58.24
2022-11-08T15:34:29.637Z,58.49
2022-11-08T15:36:57.604Z,57.88
2022-11-08T15:39:25.395Z,57.92
2022-11-08T15:41:53.346Z,58.03
2022-11-08T15:44:24.495Z,57.93
2022-11-08T15:46:54.527Z,58.52
2022-11-08T15:49:22.467Z,58.61
2022-11-08T15:51:50.518Z,58.27
2022-11-08T15:54:18.427Z,58.65
2022-11-08T15:56:47.884Z,58.51
2022-11-08T15:59:20.929Z,58.70
2022-11-08T16:01:49.380Z,58.59
2022-11-08T16:04:17.450Z,58.44
2022-11-08T16:06:45.341Z,58.99
2022-11-08T16:09:13.806Z,58.63
2022-11-08T16:11:41.594Z,58.67
2022-11-08T16:14:09.510Z,59.08
2022-11-08T16:16:37.673Z,59.10
2022-11-08T16:19:05.609Z,58.75
2022-11-08T16:21:34.019Z,59.20
2022-11-08T16:24:02.192Z,58.80
2022-11-08T16:26:30.294Z,58.70
2022-11-08T16:28:58.165Z,59.48
2022-11-08T16:31:26.645Z,59.32
2022-11-08T16:33:56.801Z,59.31
2022-11-08T16:36:24.687Z,58.94
2022-11-08T16:38:52.553Z,59.39
2022-11-08T16:41:20.395Z,59.49
2022-11-08T16:43:48.306Z,59.22
2022-11-08T16:46:17.885Z,59.68
2022-11-08T16:48:46.448Z,59.70
2022-11-08T16:51:14.316Z,58.98
2022-11-08T16:53:42.382Z,59.37
2022-11-08T16:56:10.260Z,59.22
2022-11-08T16:58:39.949Z,59.24
2022-11-08T17:01:10.643Z,59.40
2022-11-08T17:03:38.664Z,59.79
2022-11-08T17:06:06.517Z,59.35
2022-11-08T17:08:34.491Z,59.29
2022-11-08T17:11:02.790Z,59.41
2022-11-08T17:13:30.666Z,59.29
2022-11-08T17:15:58.698Z,59.30
2022-11-08T17:18:26.587Z,59.47
2022-11-08T17:20:54.370Z,59.78
2022-11-08T17:23:24.212Z,59.69
2022-11-08T17:25:52.076Z,59.98
2022-11-08T17:28:20.150Z,59.33
2022-11-08T17:30:48.286Z,59.37
2022-11-08T17:33:16.849Z,59.70
2022-11-08T17:35:45.499Z,59.63
2022-11-08T17:38:13.570Z,59.13
2022-11-08T17:40:42.564Z,59.42
2022-11-08T17:43:10.583Z,59.40
2022-11-08T17:45:38.636Z,59.45
2022-11-08T17:48:08.106Z,59.17
2022-11-08T17:50:35.969Z,59.79
2022-11-08T17:53:04.030Z,59.72
2022-11-08T17:55:32.097Z,59.83
2022-11-08T17:57:59.952Z,59.37
2022-11-08T18:00:30.341Z,59.70
2022-11-08T18:02:58.248Z,59.85
2022-11-08T18:05:26.061Z,59.85
2022-11-08T18:07:54.076Z,60.73
2022-11-08T18:10:21.975Z,61.28
2022-11-08T18:12:50.709Z,61.34
2022-11-08T18:15:18.740Z,61.55
2022-11-08T18:17:46.781Z,61.53
2022-11-08T18:20:14.661Z,61.62
2022-11-08T18:22:42.852Z,61.51
2022-11-08T18:25:12.743Z,61.39
2022-11-08T18:27:40.734Z,61.32
2022-11-08T18:30:08.661Z,61.50
2022-11-08T18:32:37.067Z,61.79
2022-11-08T18:35:04.965Z,62.04
2022-11-08T18:37:33.331Z,61.45
2022-11-08T18:40:01.154Z,61.53
2022-11-08T18:42:29.069Z,61.54
2022-11-08T18:44:57.019Z,61.47
2022-11-08T18:47:24.711Z,61.32
2022-11-08T18:49:55.757Z,61.67
2022-11-08T18:52:23.817Z,61.87
2022-11-08T18:54:51.616Z,61.11
2022-11-08T18:57:19.898Z,61.31
2022-11-08T18:59:47.859Z,61.58
2022-11-08T19:02:16.379Z,60.98
2022-11-08T19:04:44.190Z,60.74
2022-11-08T19:07:12.224Z,61.25
2022-11-08T19:09:40.338Z,61.26
2022-11-08T19:12:08.278Z,61.07
2022-11-08T19:14:38.712Z,61.73
2022-11-08T19:17:06.476Z,61.03
2022-11-08T19:19:34.246Z,61.43
2022-11-08T19:22:02.262Z,60.98
2022-11-08T19:24:30.298Z,61.12
2022-11-08T19:27:00.611Z,61.07
2022-11-08T19:29:28.628Z,61.01
2022-11-08T19:31:56.400Z,61.01
2022-11-08T19:34:24.244Z,61.35
2022-11-08T19:36:55.650Z,61.29
2022-11-08T19:39:24.738Z,61.46
2022-11-08T19:41:52.785Z,61.45
2022-11-08T19:44:20.858Z,61.39
2022-11-08T19:46:49.006Z,61.67
2022-11-08T19:49:17.028Z,61.16
2022-11-08T19:51:46.928Z,61.08
2022-11-08T19:54:15.219Z,61.41
2022-11-08T19:57:03.747Z,60.92
2022-11-08T19:59:31.130Z,61.02
2022-11-08T20:02:00.607Z,61.64
2022-11-08T20:04:28.497Z,61.70
2022-11-08T20:06:56.711Z,61.03
2022-11-08T20:09:29.913Z,61.52
2022-11-08T20:11:58.526Z,61.47
2022-11-08T20:14:26.815Z,61.71
2022-11-08T20:16:54.679Z,61.38
2022-11-08T20:19:22.618Z,61.44
2022-11-08T20:21:50.610Z,61.70
2022-11-08T20:24:19.066Z,62.15
2022-11-08T20:26:47.357Z,61.96
2022-11-08T20:29:15.952Z,61.75
2022-11-08T20:31:43.859Z,62.36
2022-11-08T20:34:11.961Z,62.09
2022-11-08T20:36:41.284Z,62.09
2022-11-08T20:39:10.973Z,62.43
2022-11-08T20:41:39.371Z,62.13
2022-11-08T20:44:07.376Z,62.54
2022-11-08T20:46:35.245Z,62.76
2022-11-08T20:49:03.120Z,62.42
2022-11-08T20:51:36.154Z,62.27
2022-11-08T20:54:03.882Z,62.32
2022-11-08T20:56:31.700Z,62.88
2022-11-08T20:58:59.552Z,62.69
2022-11-08T21:01:28.468Z,62.89
2022-11-08T21:03:58.512Z,62.71
2022-11-08T21:06:26.519Z,63.53
2022-11-08T21:09:08.205Z,63.24
2022-11-08T21:11:42.551Z,63.12
2022-11-08T21:14:11.701Z,63.39
2022-11-08T21:17:06.803Z,63.46
2022-11-08T21:19:28.028Z,63.16
2022-11-08T21:22:15.262Z,63.20
2022-11-08T21:24:44.361Z,63.50
2022-11-08T21:27:12.197Z,63.31
2022-11-08T21:29:40.137Z,63.14
2022-11-08T21:32:08.283Z,63.81
2022-11-08T21:34:36.302Z,62.99
2022-11-08T21:37:05.832Z,63.28
2022-11-08T21:39:33.725Z,62.88
2022-11-08T21:42:01.659Z,63.18
2022-11-08T21:44:29.475Z,63.63
2022-11-08T21:46:57.423Z,63.60
2022-11-08T21:49:26.647Z,63.33
2022-11-08T21:51:54.619Z,63.50
2022-11-08T21:54:22.883Z,63.83
2022-11-08T21:56:50.741Z,63.35
2022-11-08T21:59:18.678Z,63.32
2022-11-08T22:01:48.740Z,63.79
2022-11-08T22:04:17.080Z,63.35
2022-11-08T22:06:47.661Z,63.61
2022-11-08T22:09:16.049Z,63.35
2022-11-08T22:11:44.048Z,63.59
2022-11-08T22:14:13.331Z,63.49
2022-11-08T22:16:41.548Z,64.05
2022-11-08T22:19:09.715Z,63.55
2022-11-08T22:21:41.462Z,63.81
2022-11-08T22:24:09.508Z,63.81
2022-11-08T22:26:37.969Z,63.83
2022-11-08T22:29:06.075Z,63.70
2022-11-08T22:31:33.897Z,63.68
2022-11-08T22:34:01.559Z,64.01
2022-11-08T22:36:29.377Z,64.14
2022-11-08T22:38:58.467Z,63.78
2022-11-08T22:41:26.356Z,63.89
2022-11-08T22:43:54.083Z,64.24
2022-11-08T22:46:21.934Z,63.69
2022-11-08T22:48:49.551Z,64.23
2022-11-08T22:51:18.401Z,63.95
2022-11-08T22:53:46.199Z,63.97
2022-11-08T22:56:14.007Z,64.35
2022-11-08T22:58:42.012Z,64.00
2022-11-08T23:01:09.661Z,63.95
2022-11-08T23:03:39.535Z,64.13
2022-11-08T23:06:07.282Z,64.61
2022-11-08T23:08:35.005Z,64.47
2022-11-08T23:11:19.942Z,64.92
2022-11-08T23:14:05.201Z,64.65
2022-11-08T23:16:40.239Z,64.68
2022-11-08T23:19:25.764Z,64.92
2022-11-08T23:22:10.861Z,64.42
2022-11-08T23:24:38.801Z,64.74
2022-11-08T23:27:23.988Z,64.96
2022-11-08T23:30:08.962Z,64.99
2022-11-08T23:32:37.539Z,65.10
2022-11-08T23:35:05.083Z,65.44
2022-11-08T23:37:32.782Z,65.07
2022-11-08T23:40:17.921Z,65.42
2022-11-08T23:43:02.979Z,65.12
2022-11-08T23:45:31.604Z,65.43
2022-11-08T23:48:00.447Z,65.46
2022-11-08T23:50:28.049Z,65.14
2022-11-08T23:52:55.605Z,66.25
2022-11-08T23:55:23.304Z,65.71
2022-11-08T23:57:51.795Z,65.57
